METAR

TAF

 




Rio de Janeiro / Galeão - Antonio Carlos Jobim, RJ - SBGL


28 de Agosto de 2014 às 09:00 (UTC)


Tempo:

Céu parcialmente nublado

Temperatura:

18ºC

Umidade Relativa:

88%

Localização:
Ajuste do Altímetro:

1018 hPa

Visibilidade Horizontal Predominante:

> 10 Km

Direção e Velocidade do Vento:

290° 5,56 Km/h


Observação Meteorológica:

METAR SBGL 280900Z 29003KT 9999 FEW010 SCT020 BKN030 18/16 Q1018=